Breakabeen, New York
Current Conditions -  °F | °C
As of 1:51 PM on Friday 21 Nov 2014 (Local Time) from KALB Reporting Station
Scattered Clouds Scattered Clouds  
Wind Chill: 19°   Ceiling: Unl
Heat Index: 31°   Visibility: 10mi
Dew Point:   Wind: 18mph
Humidity: 40%   Direction: 290°WNW
Pressure: 30.28"   Gusts: 29mph
Location:  42.5337°N, 74.3385°W
Report Text: KALB 211851Z 29016G25KT 10SM SCT046 M01/M13 A3028 RMK AO2 PK WND 29027/1814 SLP260 T10061128
Loading
Personal Weather Stations






























Interactive Weather Map New forecast layout! Learn more

10-Day Weather Forecast

Advertisements
Track Severe Weather on mobile